Time;durP1;ratioP1;P1;durP2;ratioP2;P2;SDS_P1;SDS_P2;PMS_P1;PMS_P2;Temp;Humidity;BMP_temperature;BMP_pressure;BME280_temperature;BME280_humidity;BME280_pressure;Samples;Min_cycle;Max_cycle;Signal;HPM_P1;HPM_P2
2022/05/13 00:00:11;;;;;;;26.25;5.45;;;;;;;;;;5069884;28;20046;-64
2022/05/13 00:02:39;;;;;;;27.10;5.28;;;;;;;;;;5071059;28;20045;-64
2022/05/13 00:05:06;;;;;;;22.90;5.20;;;;;;;;;;5073183;28;20028;-64
2022/05/13 00:07:33;;;;;;;24.25;5.57;;;;;;;;;;5073082;28;20097;-64
2022/05/13 00:10:05;;;;;;;21.60;5.32;;;;;;;;;;5056017;28;20414;-64
2022/05/13 00:12:34;;;;;;;25.92;5.40;;;;;;;;;;5072903;28;20059;-64
2022/05/13 00:15:01;;;;;;;23.33;5.07;;;;;;;;;;5054847;28;20048;-64
2022/05/13 00:17:28;;;;;;;39.22;7.07;;;;;;;;;;5072274;28;20406;-63
2022/05/13 00:19:55;;;;;;;24.00;5.78;;;;;;;;;;5072693;28;20040;-63
2022/05/13 00:22:22;;;;;;;43.53;6.85;;;;;;;;;;5072619;28;20068;-64
2022/05/13 00:24:52;;;;;;;34.67;5.68;;;;;;;;;;5073377;28;20047;-64
2022/05/13 00:27:18;;;;;;;25.95;5.13;;;;;;;;;;5072077;28;20131;-64
2022/05/13 00:29:45;;;;;;;30.58;5.13;;;;;;;;;;5072570;28;20083;-64
2022/05/13 00:32:11;;;;;;;22.15;4.47;;;;;;;;;;5054619;28;20476;-64
2022/05/13 00:34:38;;;;;;;25.48;4.72;;;;;;;;;;5072408;28;20036;-64
2022/05/13 00:37:04;;;;;;;21.98;4.30;;;;;;;;;;5073288;28;20037;-64
2022/05/13 00:39:31;;;;;;;25.42;4.50;;;;;;;;;;5072443;28;20033;-64
2022/05/13 00:42:10;;;;;;;26.10;5.35;;;;;;;;;;5072179;28;20612;-64
2022/05/13 00:44:37;;;;;;;25.77;5.60;;;;;;;;;;5054298;28;20490;-64
2022/05/13 00:47:04;;;;;;;27.42;4.65;;;;;;;;;;5072441;28;20113;-64
2022/05/13 00:49:31;;;;;;;31.85;4.68;;;;;;;;;;5072205;28;20037;-64
2022/05/13 00:52:00;;;;;;;33.28;4.97;;;;;;;;;;5073048;28;20072;-64
2022/05/13 00:54:27;;;;;;;36.40;5.10;;;;;;;;;;5072491;28;20039;-64
2022/05/13 00:56:54;;;;;;;16.98;4.72;;;;;;;;;;5071954;28;20048;-64
2022/05/13 00:59:22;;;;;;;29.40;5.20;;;;;;;;;;5072152;28;20214;-64
2022/05/13 01:01:48;;;;;;;27.23;5.32;;;;;;;;;;5071830;28;20469;-64
2022/05/13 01:04:16;;;;;;;34.55;5.55;;;;;;;;;;5072395;28;20041;-64
2022/05/13 01:06:53;;;;;;;24.00;4.65;;;;;;;;;;5072766;28;20138;-64
2022/05/13 01:09:20;;;;;;;29.75;4.68;;;;;;;;;;5071470;28;20047;-64
2022/05/13 01:11:48;;;;;;;25.85;4.45;;;;;;;;;;5071181;28;20064;-64
2022/05/13 01:14:16;;;;;;;35.67;6.43;;;;;;;;;;5071414;28;20032;-64
2022/05/13 01:19:28;;;;;;;29.75;5.60;;;;;;;;;;5071392;28;20040;-64
2022/05/13 01:21:54;;;;;;;29.90;5.75;;;;;;;;;;5072254;28;20050;-64
2022/05/13 01:24:21;;;;;;;42.60;6.63;;;;;;;;;;5071479;28;20050;-64
2022/05/13 01:26:48;;;;;;;25.42;5.10;;;;;;;;;;5071347;28;20036;-64
2022/05/13 01:29:14;;;;;;;21.23;4.30;;;;;;;;;;5071358;28;20029;-64
2022/05/13 01:31:43;;;;;;;22.40;5.03;;;;;;;;;;5071349;28;20045;-64
2022/05/13 01:34:11;;;;;;;28.27;4.82;;;;;;;;;;5071176;28;20492;-64
2022/05/13 01:36:39;;;;;;;35.33;4.68;;;;;;;;;;5071436;28;20547;-64
2022/05/13 01:39:06;;;;;;;39.35;5.88;;;;;;;;;;5071023;28;20033;-64
2022/05/13 01:41:33;;;;;;;26.90;5.70;;;;;;;;;;5071088;28;20059;-64
2022/05/13 01:44:00;;;;;;;24.73;4.65;;;;;;;;;;5071070;28;20375;-64
2022/05/13 01:46:27;;;;;;;40.05;6.95;;;;;;;;;;5071309;28;20119;-64
2022/05/13 01:48:54;;;;;;;25.45;5.15;;;;;;;;;;5072245;28;20052;-64
2022/05/13 01:51:20;;;;;;;25.45;5.60;;;;;;;;;;5071056;28;20041;-64
2022/05/13 01:53:48;;;;;;;20.08;5.00;;;;;;;;;;5070684;28;20032;-63
2022/05/13 01:56:14;;;;;;;25.73;5.65;;;;;;;;;;5070141;28;20055;-64
2022/05/13 01:58:41;;;;;;;25.25;5.05;;;;;;;;;;5070748;28;20494;-64
2022/05/13 02:01:08;;;;;;;24.05;4.70;;;;;;;;;;5071356;28;20032;-64
2022/05/13 02:03:44;;;;;;;23.38;5.00;;;;;;;;;;5070666;28;20105;-64
2022/05/13 02:06:25;;;;;;;24.25;4.85;;;;;;;;;;5071015;28;20418;-64
2022/05/13 02:08:53;;;;;;;21.60;5.25;;;;;;;;;;5070381;28;20052;-64
2022/05/13 02:11:20;;;;;;;21.90;4.93;;;;;;;;;;5070268;28;20078;-64
2022/05/13 02:13:47;;;;;;;27.02;5.05;;;;;;;;;;5070467;28;20036;-64
2022/05/13 02:16:14;;;;;;;26.60;5.35;;;;;;;;;;5052987;28;20139;-64
2022/05/13 02:18:41;;;;;;;22.90;4.75;;;;;;;;;;5071326;28;20041;-64
2022/05/13 02:21:08;;;;;;;16.95;5.25;;;;;;;;;;5070484;28;20028;-63
2022/05/13 02:23:35;;;;;;;25.80;5.13;;;;;;;;;;5052828;28;20044;-64
2022/05/13 02:26:03;;;;;;;35.45;6.20;;;;;;;;;;5069310;28;20055;-64
2022/05/13 02:28:30;;;;;;;29.40;5.35;;;;;;;;;;5071031;28;20068;-64
2022/05/13 02:30:57;;;;;;;305.35;21.85;;;;;;;;;;5053037;28;20040;-64
2022/05/13 02:33:24;;;;;;;359.05;29.60;;;;;;;;;;5052428;28;20044;-64
2022/05/13 02:35:50;;;;;;;147.07;16.33;;;;;;;;;;5070502;28;20033;-64
2022/05/13 02:38:17;;;;;;;66.95;7.25;;;;;;;;;;5069695;28;20127;-64
2022/05/13 02:43:28;;;;;;;46.78;7.05;;;;;;;;;;5070405;28;20063;-64
2022/05/13 02:45:55;;;;;;;21.38;4.72;;;;;;;;;;5071329;28;20047;-63
2022/05/13 02:48:22;;;;;;;27.77;5.38;;;;;;;;;;5070274;28;20581;-64
2022/05/13 02:50:49;;;;;;;38.88;7.32;;;;;;;;;;5070066;28;20032;-64
2022/05/13 02:53:15;;;;;;;30.98;6.28;;;;;;;;;;5070098;28;20043;-64
2022/05/13 02:55:42;;;;;;;42.90;6.32;;;;;;;;;;5051988;28;20050;-64
2022/05/13 02:58:08;;;;;;;22.92;5.50;;;;;;;;;;5070144;28;20063;-63
2022/05/13 03:00:35;;;;;;;22.02;4.93;;;;;;;;;;5070699;28;20040;-64
2022/05/13 03:03:02;;;;;;;23.65;5.53;;;;;;;;;;5069979;28;20049;-64
2022/05/13 03:05:29;;;;;;;33.20;7.68;;;;;;;;;;5070165;28;20033;-64
2022/05/13 03:07:57;;;;;;;29.35;6.72;;;;;;;;;;5070016;28;20486;-64
2022/05/13 03:10:24;;;;;;;44.42;7.47;;;;;;;;;;5052543;28;20158;-64
2022/05/13 03:12:50;;;;;;;44.17;8.02;;;;;;;;;;5070347;28;20075;-63
2022/05/13 03:15:17;;;;;;;30.00;6.70;;;;;;;;;;5069934;28;20112;-64
2022/05/13 03:17:44;;;;;;;21.83;5.43;;;;;;;;;;5069855;28;20060;-63
2022/05/13 03:20:15;;;;;;;39.38;7.30;;;;;;;;;;5051302;28;20039;-64
2022/05/13 03:22:47;;;;;;;38.53;7.30;;;;;;;;;;5070007;28;20052;-64
2022/05/13 03:25:15;;;;;;;54.50;7.72;;;;;;;;;;5052082;28;20039;-64
2022/05/13 03:27:41;;;;;;;60.67;8.52;;;;;;;;;;5069096;28;20079;-63
2022/05/13 03:30:10;;;;;;;41.60;7.10;;;;;;;;;;5069560;28;20119;-64
2022/05/13 03:32:37;;;;;;;36.95;7.68;;;;;;;;;;5069545;28;20054;-64
2022/05/13 03:35:05;;;;;;;333.27;26.70;;;;;;;;;;5069808;28;20033;-64
2022/05/13 03:37:31;;;;;;;188.43;17.20;;;;;;;;;;5071264;28;20135;-64
2022/05/13 03:39:58;;;;;;;189.32;16.00;;;;;;;;;;5074057;28;20051;-64
2022/05/13 03:42:24;;;;;;;73.15;11.27;;;;;;;;;;5073004;28;20102;-64
2022/05/13 03:44:51;;;;;;;38.17;7.03;;;;;;;;;;5055608;28;20560;-63
2022/05/13 03:47:17;;;;;;;68.07;7.95;;;;;;;;;;5072943;28;20132;-63
2022/05/13 03:49:44;;;;;;;34.22;5.75;;;;;;;;;;5073046;28;20048;-64
2022/05/13 03:52:11;;;;;;;32.97;5.75;;;;;;;;;;5073459;28;20040;-64
2022/05/13 03:54:38;;;;;;;35.78;6.95;;;;;;;;;;5039378;28;20040;-64
2022/05/13 03:57:06;;;;;;;25.77;6.28;;;;;;;;;;5073032;28;20407;-64
2022/05/13 03:59:33;;;;;;;28.95;6.18;;;;;;;;;;5073127;28;20049;-64
2022/05/13 04:02:00;;;;;;;35.22;6.70;;;;;;;;;;5073026;28;20883;-64
2022/05/13 04:04:29;;;;;;;46.50;8.35;;;;;;;;;;5054834;28;20617;-64
2022/05/13 04:09:41;;;;;;;32.85;6.80;;;;;;;;;;5073631;28;20556;-64
2022/05/13 04:17:40;;;;;;;47.90;6.85;;;;;;;;;;5073135;28;20136;-64
2022/05/13 04:20:06;;;;;;;25.88;5.63;;;;;;;;;;5072749;28;20032;-64
2022/05/13 04:22:33;;;;;;;34.25;5.20;;;;;;;;;;5054714;28;20068;-64
2022/05/13 04:25:01;;;;;;;46.30;6.53;;;;;;;;;;5073146;28;20040;-64
2022/05/13 04:27:27;;;;;;;31.30;5.85;;;;;;;;;;5072197;28;20036;-64
2022/05/13 04:29:55;;;;;;;42.60;6.03;;;;;;;;;;5055161;28;20101;-64
2022/05/13 04:32:21;;;;;;;35.15;5.70;;;;;;;;;;5072338;28;20078;-64
2022/05/13 04:34:48;;;;;;;42.65;6.38;;;;;;;;;;5072022;28;20048;-64
2022/05/13 04:37:14;;;;;;;37.30;7.18;;;;;;;;;;5072525;28;20055;-64
2022/05/13 04:39:40;;;;;;;29.38;5.40;;;;;;;;;;5072870;28;20483;-65
2022/05/13 04:44:53;;;;;;;76.70;8.30;;;;;;;;;;5072110;28;20138;-64
2022/05/13 04:50:04;;;;;;;23.13;4.45;;;;;;;;;;5072957;28;20115;-65
2022/05/13 04:52:31;;;;;;;29.20;5.07;;;;;;;;;;5072208;28;20052;-65
2022/05/13 04:54:57;;;;;;;299.63;24.20;;;;;;;;;;5072760;28;20512;-65
2022/05/13 04:57:24;;;;;;;25.23;5.10;;;;;;;;;;5071783;28;20098;-65
2022/05/13 04:59:51;;;;;;;32.42;6.13;;;;;;;;;;5071952;28;20094;-65
2022/05/13 05:02:17;;;;;;;41.20;7.07;;;;;;;;;;5071554;28;20072;-65
2022/05/13 05:04:44;;;;;;;34.40;6.22;;;;;;;;;;5053929;28;20040;-65
2022/05/13 05:07:11;;;;;;;17.98;4.95;;;;;;;;;;5072352;28;20119;-65
2022/05/13 05:09:38;;;;;;;91.88;12.15;;;;;;;;;;5071981;28;20098;-66
2022/05/13 05:12:05;;;;;;;27.02;5.32;;;;;;;;;;5070947;28;20052;-65
2022/05/13 05:14:32;;;;;;;19.80;4.68;;;;;;;;;;5066366;28;20036;-65
2022/05/13 05:16:58;;;;;;;25.75;5.13;;;;;;;;;;5070654;28;20046;-65
2022/05/13 05:19:25;;;;;;;76.15;8.75;;;;;;;;;;5070952;28;20055;-65
2022/05/13 05:21:51;;;;;;;26.92;5.95;;;;;;;;;;5071681;28;20132;-65
2022/05/13 05:24:18;;;;;;;38.47;6.75;;;;;;;;;;5071064;28;20098;-65
2022/05/13 05:26:44;;;;;;;67.38;7.93;;;;;;;;;;5070692;28;20028;-65
2022/05/13 05:29:11;;;;;;;38.72;6.78;;;;;;;;;;5071210;28;20040;-65
2022/05/13 05:31:37;;;;;;;38.75;6.28;;;;;;;;;;5053178;28;20036;-65
2022/05/13 05:34:04;;;;;;;83.20;8.90;;;;;;;;;;5053850;28;20055;-65
2022/05/13 05:36:30;;;;;;;33.42;5.68;;;;;;;;;;5070739;28;20162;-65
2022/05/13 05:38:57;;;;;;;30.23;5.30;;;;;;;;;;5070528;28;20045;-65
2022/05/13 05:41:23;;;;;;;46.95;6.72;;;;;;;;;;5069714;28;20040;-64
2022/05/13 05:43:51;;;;;;;100.28;11.43;;;;;;;;;;5053015;28;20040;-64
2022/05/13 05:46:18;;;;;;;52.13;7.38;;;;;;;;;;5070424;28;20135;-65
2022/05/13 05:48:45;;;;;;;42.25;6.53;;;;;;;;;;5069968;28;20071;-65
2022/05/13 05:51:11;;;;;;;37.63;5.65;;;;;;;;;;5069337;28;20040;-65
2022/05/13 05:59:08;;;;;;;25.33;5.63;;;;;;;;;;5069915;28;20457;-64
2022/05/13 06:01:35;;;;;;;57.00;6.65;;;;;;;;;;5069914;28;20433;-65
2022/05/13 06:04:02;;;;;;;22.55;4.15;;;;;;;;;;5071611;28;20048;-65
2022/05/13 06:06:28;;;;;;;58.90;6.25;;;;;;;;;;5052646;28;20037;-65
2022/05/13 06:08:57;;;;;;;38.35;5.85;;;;;;;;;;5070524;28;20044;-64
2022/05/13 06:11:24;;;;;;;73.82;7.70;;;;;;;;;;5069966;28;20428;-64
2022/05/13 06:13:54;;;;;;;30.15;4.63;;;;;;;;;;5070294;28;20056;-65
2022/05/13 06:16:22;;;;;;;177.32;14.18;;;;;;;;;;5070607;28;20044;-64
2022/05/13 06:18:49;;;;;;;36.15;4.47;;;;;;;;;;5052952;28;20422;-65
2022/05/13 06:21:15;;;;;;;18.27;3.60;;;;;;;;;;5069475;28;20072;-64
2022/05/13 06:23:42;;;;;;;39.80;4.97;;;;;;;;;;5069835;28;20037;-65
2022/05/13 06:26:08;;;;;;;37.10;4.75;;;;;;;;;;5069744;28;20048;-65
2022/05/13 06:28:35;;;;;;;28.73;3.88;;;;;;;;;;5056470;28;20126;-64
2022/05/13 06:31:01;;;;;;;46.00;5.40;;;;;;;;;;5052639;28;20076;-64
2022/05/13 06:33:28;;;;;;;21.10;4.20;;;;;;;;;;5069660;28;20124;-64
2022/05/13 06:35:55;;;;;;;61.35;7.15;;;;;;;;;;5069750;28;20037;-64
2022/05/13 06:38:22;;;;;;;46.42;5.20;;;;;;;;;;5068960;28;20083;-64
2022/05/13 06:40:49;;;;;;;39.08;4.25;;;;;;;;;;5068627;28;20449;-64
2022/05/13 06:43:16;;;;;;;55.60;6.25;;;;;;;;;;5066239;28;20107;-64
2022/05/13 06:45:43;;;;;;;31.83;4.28;;;;;;;;;;5069377;28;20505;-64
2022/05/13 06:48:10;;;;;;;39.42;4.82;;;;;;;;;;5068521;28;20084;-64
2022/05/13 06:50:37;;;;;;;27.48;3.55;;;;;;;;;;5068714;28;20040;-64
2022/05/13 06:53:04;;;;;;;21.55;3.58;;;;;;;;;;5069527;28;20044;-64
2022/05/13 06:55:30;;;;;;;27.80;3.65;;;;;;;;;;5069503;28;20040;-64
2022/05/13 06:57:58;;;;;;;25.75;2.92;;;;;;;;;;5070292;28;20043;-64
2022/05/13 07:00:24;;;;;;;32.40;4.10;;;;;;;;;;5069967;28;20060;-64
2022/05/13 07:02:51;;;;;;;27.10;2.95;;;;;;;;;;5051865;28;20037;-63
2022/05/13 07:05:18;;;;;;;63.97;6.95;;;;;;;;;;5069553;28;20047;-64
2022/05/13 07:07:45;;;;;;;32.90;7.00;;;;;;;;;;5069543;28;20071;-75
2022/05/13 07:10:12;;;;;;;26.38;3.97;;;;;;;;;;5070566;28;20102;-66
2022/05/13 07:12:39;;;;;;;142.73;11.88;;;;;;;;;;5054900;28;20127;-66
2022/05/13 07:15:08;;;;;;;28.50;3.33;;;;;;;;;;5072137;28;20036;-67
2022/05/13 07:17:34;;;;;;;43.22;4.40;;;;;;;;;;5034333;28;20045;-67
2022/05/13 07:20:01;;;;;;;53.20;5.43;;;;;;;;;;5022847;28;20041;-67
2022/05/13 07:22:27;;;;;;;123.70;10.05;;;;;;;;;;5053440;28;20106;-67
2022/05/13 07:24:54;;;;;;;33.10;3.97;;;;;;;;;;5053867;28;20053;-66
2022/05/13 07:27:20;;;;;;;47.05;5.57;;;;;;;;;;5028325;28;20055;-66
2022/05/13 07:29:47;;;;;;;27.17;2.60;;;;;;;;;;5034565;28;20083;-67
2022/05/13 07:32:13;;;;;;;24.10;2.42;;;;;;;;;;5034849;28;20037;-68
2022/05/13 07:34:40;;;;;;;32.97;3.35;;;;;;;;;;5035196;28;20052;-66
2022/05/13 07:37:06;;;;;;;75.13;5.40;;;;;;;;;;5053463;28;20041;-66
2022/05/13 07:42:19;;;;;;;58.47;5.72;;;;;;;;;;5051848;28;20039;-66
2022/05/13 07:44:45;;;;;;;345.67;26.80;;;;;;;;;;5035620;28;20406;-66
2022/05/13 07:47:12;;;;;;;37.00;4.35;;;;;;;;;;5052568;28;20499;-66
2022/05/13 07:49:39;;;;;;;59.28;4.55;;;;;;;;;;5052834;28;20044;-66
2022/05/13 07:52:06;;;;;;;35.53;3.63;;;;;;;;;;5053219;28;20406;-66
2022/05/13 07:54:33;;;;;;;23.00;2.35;;;;;;;;;;5052731;28;20044;-65
2022/05/13 07:57:00;;;;;;;39.80;4.20;;;;;;;;;;5051801;28;20509;-66
2022/05/13 07:59:26;;;;;;;31.25;3.65;;;;;;;;;;5052392;28;20041;-66
2022/05/13 08:01:53;;;;;;;22.40;3.17;;;;;;;;;;5052481;28;20082;-65
2022/05/13 08:04:20;;;;;;;31.13;3.67;;;;;;;;;;5052580;28;20045;-66
2022/05/13 08:06:46;;;;;;;33.67;3.88;;;;;;;;;;5051753;28;20041;-66
2022/05/13 08:09:13;;;;;;;42.38;4.82;;;;;;;;;;5052438;28;20091;-65
2022/05/13 08:11:39;;;;;;;21.70;2.70;;;;;;;;;;5051223;28;20055;-65
2022/05/13 08:14:06;;;;;;;35.65;4.15;;;;;;;;;;5034191;28;20047;-65
2022/05/13 08:16:35;;;;;;;24.88;2.85;;;;;;;;;;5052430;28;20041;-66
2022/05/13 08:19:02;;;;;;;42.38;4.43;;;;;;;;;;5052731;28;20099;-66
2022/05/13 08:21:29;;;;;;;552.60;57.00;;;;;;;;;;5051861;28;20112;-65
2022/05/13 08:23:56;;;;;;;37.88;5.25;;;;;;;;;;5051619;28;20060;-65
2022/05/13 08:26:22;;;;;;;22.48;3.25;;;;;;;;;;5050906;28;20037;-65
2022/05/13 08:28:49;;;;;;;16.30;2.63;;;;;;;;;;5051955;28;20049;-65
2022/05/13 08:31:15;;;;;;;36.58;4.50;;;;;;;;;;5051901;28;20037;-65
2022/05/13 08:33:42;;;;;;;158.57;15.73;;;;;;;;;;5028285;28;20446;-65
2022/05/13 08:36:13;;;;;;;25.60;3.60;;;;;;;;;;5030020;28;20087;-65
2022/05/13 08:38:40;;;;;;;40.30;4.40;;;;;;;;;;5031715;28;20037;-65
2022/05/13 08:41:07;;;;;;;47.10;3.92;;;;;;;;;;5031338;28;20041;-65
2022/05/13 08:43:36;;;;;;;32.30;3.65;;;;;;;;;;5032119;28;20055;-65
2022/05/13 08:46:21;;;;;;;21.58;3.03;;;;;;;;;;5032452;28;20064;-65
2022/05/13 08:49:00;;;;;;;25.15;3.22;;;;;;;;;;5029319;28;20060;-65
2022/05/13 08:51:45;;;;;;;17.15;2.55;;;;;;;;;;5031733;28;20050;-65
2022/05/13 08:54:17;;;;;;;26.83;3.40;;;;;;;;;;5030769;28;20116;-65
2022/05/13 08:56:45;;;;;;;17.42;2.60;;;;;;;;;;5031137;28;20033;-65
2022/05/13 08:59:19;;;;;;;28.48;2.67;;;;;;;;;;5031381;28;20047;-65
2022/05/13 09:01:53;;;;;;;341.90;22.45;;;;;;;;;;5029705;28;20400;-65
2022/05/13 09:04:38;;;;;;;29.48;3.35;;;;;;;;;;5031988;28;20044;-65
2022/05/13 09:07:12;;;;;;;25.02;3.28;;;;;;;;;;5032348;28;20069;-65
2022/05/13 09:09:41;;;;;;;41.55;4.00;;;;;;;;;;5031608;28;20045;-65
2022/05/13 09:12:17;;;;;;;26.50;3.67;;;;;;;;;;5031173;28;20064;-65
2022/05/13 09:14:48;;;;;;;35.58;3.78;;;;;;;;;;5031011;28;20045;-65
2022/05/13 09:17:20;;;;;;;14.70;3.20;;;;;;;;;;5032102;28;20033;-66
2022/05/13 09:20:08;;;;;;;24.92;3.70;;;;;;;;;;5031251;28;20045;-66
2022/05/13 09:22:37;;;;;;;48.20;5.03;;;;;;;;;;5031283;28;20052;-66
2022/05/13 09:25:04;;;;;;;48.13;4.95;;;;;;;;;;5031532;28;20097;-65
2022/05/13 09:27:47;;;;;;;;;;;;;;;;;;5031853;28;20087;-69
2022/05/13 09:30:17;;;;;;;12.88;2.50;;;;;;;;;;5031218;28;20015;-69
2022/05/13 09:32:44;;;;;;;33.15;4.47;;;;;;;;;;5031292;28;20121;-69
2022/05/13 09:35:16;;;;;;;25.15;3.78;;;;;;;;;;5031011;28;20549;-69
2022/05/13 09:37:44;;;;;;;80.28;8.10;;;;;;;;;;5029231;28;20043;-67
2022/05/13 09:40:17;;;;;;;62.75;5.47;;;;;;;;;;5031559;28;20073;-75
